sensor_id;sensor_type;location;lat;lon;timestamp;temperature;humidity
51613;DHT22;37694;51.748;14.326;2023-07-16T00:01:28;22.10;55.90
51613;DHT22;37694;51.748;14.326;2023-07-16T00:03:53;22.10;55.90
51613;DHT22;37694;51.748;14.326;2023-07-16T00:06:19;22.10;56.00
51613;DHT22;37694;51.748;14.326;2023-07-16T00:08:45;22.10;56.10
51613;DHT22;37694;51.748;14.326;2023-07-16T00:11:10;22.20;55.80
51613;DHT22;37694;51.748;14.326;2023-07-16T00:13:36;22.40;55.50
51613;DHT22;37694;51.748;14.326;2023-07-16T00:16:02;22.60;55.10
51613;DHT22;37694;51.748;14.326;2023-07-16T00:18:28;22.70;54.80
51613;DHT22;37694;51.748;14.326;2023-07-16T00:20:54;22.70;54.60
51613;DHT22;37694;51.748;14.326;2023-07-16T00:23:20;22.90;54.50
51613;DHT22;37694;51.748;14.326;2023-07-16T00:25:45;22.90;55.10
51613;DHT22;37694;51.748;14.326;2023-07-16T00:28:11;23.00;54.20
51613;DHT22;37694;51.748;14.326;2023-07-16T00:30:37;23.00;54.00
51613;DHT22;37694;51.748;14.326;2023-07-16T00:33:03;23.10;54.00
51613;DHT22;37694;51.748;14.326;2023-07-16T00:35:28;23.10;53.90
51613;DHT22;37694;51.748;14.326;2023-07-16T00:37:54;23.20;53.90
51613;DHT22;37694;51.748;14.326;2023-07-16T00:40:19;23.20;53.90
51613;DHT22;37694;51.748;14.326;2023-07-16T00:42:45;23.30;53.90
51613;DHT22;37694;51.748;14.326;2023-07-16T00:45:13;23.30;53.80
51613;DHT22;37694;51.748;14.326;2023-07-16T00:47:41;23.40;53.70
51613;DHT22;37694;51.748;14.326;2023-07-16T00:50:09;23.40;53.60
51613;DHT22;37694;51.748;14.326;2023-07-16T00:52:35;23.50;53.50
51613;DHT22;37694;51.748;14.326;2023-07-16T00:55:01;23.50;53.30
51613;DHT22;37694;51.748;14.326;2023-07-16T00:57:27;23.50;53.20
51613;DHT22;37694;51.748;14.326;2023-07-16T00:59:53;23.50;53.10
51613;DHT22;37694;51.748;14.326;2023-07-16T01:02:19;23.40;53.60
51613;DHT22;37694;51.748;14.326;2023-07-16T01:04:44;23.20;54.00
51613;DHT22;37694;51.748;14.326;2023-07-16T01:07:11;23.10;54.50
51613;DHT22;37694;51.748;14.326;2023-07-16T01:09:41;22.80;55.70
51613;DHT22;37694;51.748;14.326;2023-07-16T01:12:09;22.80;55.10
51613;DHT22;37694;51.748;14.326;2023-07-16T01:14:35;22.80;55.10
51613;DHT22;37694;51.748;14.326;2023-07-16T01:17:05;22.80;55.20
51613;DHT22;37694;51.748;14.326;2023-07-16T01:19:32;22.80;55.10
51613;DHT22;37694;51.748;14.326;2023-07-16T01:25:30;22.90;54.90
51613;DHT22;37694;51.748;14.326;2023-07-16T01:31:07;23.00;54.40
51613;DHT22;37694;51.748;14.326;2023-07-16T01:33:34;22.90;54.90
51613;DHT22;37694;51.748;14.326;2023-07-16T01:36:00;22.70;55.30
51613;DHT22;37694;51.748;14.326;2023-07-16T01:38:27;22.70;55.60
51613;DHT22;37694;51.748;14.326;2023-07-16T01:40:53;22.90;55.30
51613;DHT22;37694;51.748;14.326;2023-07-16T01:43:19;22.90;55.00
51613;DHT22;37694;51.748;14.326;2023-07-16T01:45:45;22.90;55.20
51613;DHT22;37694;51.748;14.326;2023-07-16T01:48:49;22.70;55.60
51613;DHT22;37694;51.748;14.326;2023-07-16T01:51:14;22.70;55.80
51613;DHT22;37694;51.748;14.326;2023-07-16T01:53:41;22.80;55.90
51613;DHT22;37694;51.748;14.326;2023-07-16T01:56:06;23.00;55.40
51613;DHT22;37694;51.748;14.326;2023-07-16T01:58:32;23.10;55.00
51613;DHT22;37694;51.748;14.326;2023-07-16T02:00:58;23.20;54.00
51613;DHT22;37694;51.748;14.326;2023-07-16T02:03:24;23.10;55.10
51613;DHT22;37694;51.748;14.326;2023-07-16T02:05:49;22.90;55.40
51613;DHT22;37694;51.748;14.326;2023-07-16T02:08:17;22.80;55.80
51613;DHT22;37694;51.748;14.326;2023-07-16T02:10:43;22.90;55.90
51613;DHT22;37694;51.748;14.326;2023-07-16T02:13:09;22.90;55.60
51613;DHT22;37694;51.748;14.326;2023-07-16T02:15:35;23.10;55.30
51613;DHT22;37694;51.748;14.326;2023-07-16T02:18:01;23.30;55.00
51613;DHT22;37694;51.748;14.326;2023-07-16T02:20:26;23.40;54.70
51613;DHT22;37694;51.748;14.326;2023-07-16T02:22:52;23.40;54.90
51613;DHT22;37694;51.748;14.326;2023-07-16T02:25:18;23.20;55.10
51613;DHT22;37694;51.748;14.326;2023-07-16T02:27:43;23.00;55.60
51613;DHT22;37694;51.748;14.326;2023-07-16T02:30:09;22.90;56.10
51613;DHT22;37694;51.748;14.326;2023-07-16T02:32:35;23.00;56.10
51613;DHT22;37694;51.748;14.326;2023-07-16T02:35:01;23.10;55.70
51613;DHT22;37694;51.748;14.326;2023-07-16T02:37:28;23.30;55.30
51613;DHT22;37694;51.748;14.326;2023-07-16T02:39:54;23.40;54.90
51613;DHT22;37694;51.748;14.326;2023-07-16T02:42:20;23.60;54.70
51613;DHT22;37694;51.748;14.326;2023-07-16T02:44:45;23.60;54.50
51613;DHT22;37694;51.748;14.326;2023-07-16T02:47:11;23.70;54.40
51613;DHT22;37694;51.748;14.326;2023-07-16T02:49:38;23.70;53.80
51613;DHT22;37694;51.748;14.326;2023-07-16T02:52:04;23.50;54.90
51613;DHT22;37694;51.748;14.326;2023-07-16T02:54:30;23.30;55.30
51613;DHT22;37694;51.748;14.326;2023-07-16T02:56:55;23.10;55.90
51613;DHT22;37694;51.748;14.326;2023-07-16T02:59:21;23.10;56.10
51613;DHT22;37694;51.748;14.326;2023-07-16T03:01:47;23.20;56.70
51613;DHT22;37694;51.748;14.326;2023-07-16T03:04:12;23.40;55.50
51613;DHT22;37694;51.748;14.326;2023-07-16T03:06:38;23.50;55.20
51613;DHT22;37694;51.748;14.326;2023-07-16T03:09:04;23.50;54.70
51613;DHT22;37694;51.748;14.326;2023-07-16T03:11:29;23.40;55.30
51613;DHT22;37694;51.748;14.326;2023-07-16T03:13:55;23.20;55.80
51613;DHT22;37694;51.748;14.326;2023-07-16T03:16:21;23.00;56.30
51613;DHT22;37694;51.748;14.326;2023-07-16T03:18:46;23.10;56.40
51613;DHT22;37694;51.748;14.326;2023-07-16T03:21:12;23.20;56.10
51613;DHT22;37694;51.748;14.326;2023-07-16T03:23:38;23.40;55.60
51613;DHT22;37694;51.748;14.326;2023-07-16T03:26:04;23.50;55.00
51613;DHT22;37694;51.748;14.326;2023-07-16T03:28:29;23.40;55.50
51613;DHT22;37694;51.748;14.326;2023-07-16T03:30:55;23.30;55.90
51613;DHT22;37694;51.748;14.326;2023-07-16T03:33:21;23.10;56.40
51613;DHT22;37694;51.748;14.326;2023-07-16T03:35:48;23.10;56.60
51613;DHT22;37694;51.748;14.326;2023-07-16T03:38:14;23.10;56.50
51613;DHT22;37694;51.748;14.326;2023-07-16T03:40:45;23.30;55.80
51613;DHT22;37694;51.748;14.326;2023-07-16T03:43:11;23.30;55.90
51613;DHT22;37694;51.748;14.326;2023-07-16T03:45:37;23.10;56.40
51613;DHT22;37694;51.748;14.326;2023-07-16T03:48:03;23.00;56.90
51613;DHT22;37694;51.748;14.326;2023-07-16T03:50:28;22.80;56.60
51613;DHT22;37694;51.748;14.326;2023-07-16T03:52:54;22.80;57.30
51613;DHT22;37694;51.748;14.326;2023-07-16T03:55:20;22.70;57.80
51613;DHT22;37694;51.748;14.326;2023-07-16T03:57:45;22.90;57.40
51613;DHT22;37694;51.748;14.326;2023-07-16T04:00:11;23.00;56.80
51613;DHT22;37694;51.748;14.326;2023-07-16T04:02:37;23.30;56.40
51613;DHT22;37694;51.748;14.326;2023-07-16T04:05:03;23.30;56.10
51613;DHT22;37694;51.748;14.326;2023-07-16T04:07:28;23.10;56.30
51613;DHT22;37694;51.748;14.326;2023-07-16T04:09:54;23.00;57.00
51613;DHT22;37694;51.748;14.326;2023-07-16T04:12:20;22.80;56.80
51613;DHT22;37694;51.748;14.326;2023-07-16T04:14:46;22.70;57.40
51613;DHT22;37694;51.748;14.326;2023-07-16T04:17:13;22.60;58.10
51613;DHT22;37694;51.748;14.326;2023-07-16T04:19:38;22.70;57.80
51613;DHT22;37694;51.748;14.326;2023-07-16T04:22:04;22.90;57.30
51613;DHT22;37694;51.748;14.326;2023-07-16T04:24:30;23.10;56.90
51613;DHT22;37694;51.748;14.326;2023-07-16T04:26:57;23.30;56.40
51613;DHT22;37694;51.748;14.326;2023-07-16T04:29:23;23.40;56.10
51613;DHT22;37694;51.748;14.326;2023-07-16T04:31:48;23.50;55.70
51613;DHT22;37694;51.748;14.326;2023-07-16T04:34:14;23.60;55.60
51613;DHT22;37694;51.748;14.326;2023-07-16T04:36:41;23.70;55.40
51613;DHT22;37694;51.748;14.326;2023-07-16T04:39:07;23.70;55.20
51613;DHT22;37694;51.748;14.326;2023-07-16T04:41:32;23.80;55.10
51613;DHT22;37694;51.748;14.326;2023-07-16T04:43:58;23.90;55.00
51613;DHT22;37694;51.748;14.326;2023-07-16T04:46:23;23.90;54.90
51613;DHT22;37694;51.748;14.326;2023-07-16T04:48:49;23.90;54.80
51613;DHT22;37694;51.748;14.326;2023-07-16T04:51:15;24.00;54.70
51613;DHT22;37694;51.748;14.326;2023-07-16T04:53:40;24.00;54.60
51613;DHT22;37694;51.748;14.326;2023-07-16T04:56:11;24.10;54.60
51613;DHT22;37694;51.748;14.326;2023-07-16T04:58:38;24.10;54.60
51613;DHT22;37694;51.748;14.326;2023-07-16T05:01:03;24.10;54.50
51613;DHT22;37694;51.748;14.326;2023-07-16T05:03:29;24.10;54.40
51613;DHT22;37694;51.748;14.326;2023-07-16T05:05:55;24.20;54.40
51613;DHT22;37694;51.748;14.326;2023-07-16T05:08:20;24.20;54.30
51613;DHT22;37694;51.748;14.326;2023-07-16T05:10:46;24.20;54.30
51613;DHT22;37694;51.748;14.326;2023-07-16T05:13:12;24.20;54.20
51613;DHT22;37694;51.748;14.326;2023-07-16T05:15:38;24.30;54.20
51613;DHT22;37694;51.748;14.326;2023-07-16T05:18:03;24.30;54.10
51613;DHT22;37694;51.748;14.326;2023-07-16T05:20:29;24.30;54.10
51613;DHT22;37694;51.748;14.326;2023-07-16T05:22:55;24.30;54.10
51613;DHT22;37694;51.748;14.326;2023-07-16T05:25:21;24.10;51.50
51613;DHT22;37694;51.748;14.326;2023-07-16T05:27:46;23.60;51.30
51613;DHT22;37694;51.748;14.326;2023-07-16T05:30:12;23.10;51.20
51613;DHT22;37694;51.748;14.326;2023-07-16T05:32:38;22.80;51.10
51613;DHT22;37694;51.748;14.326;2023-07-16T05:35:04;22.50;50.60
51613;DHT22;37694;51.748;14.326;2023-07-16T05:37:30;22.30;50.10
51613;DHT22;37694;51.748;14.326;2023-07-16T05:39:55;22.20;49.70
51613;DHT22;37694;51.748;14.326;2023-07-16T05:42:21;22.10;49.70
51613;DHT22;37694;51.748;14.326;2023-07-16T05:44:47;22.00;49.50
51613;DHT22;37694;51.748;14.326;2023-07-16T05:47:13;22.00;48.90
51613;DHT22;37694;51.748;14.326;2023-07-16T05:49:39;22.00;48.90
51613;DHT22;37694;51.748;14.326;2023-07-16T05:52:05;21.90;48.50
51613;DHT22;37694;51.748;14.326;2023-07-16T05:54:30;21.80;48.50
51613;DHT22;37694;51.748;14.326;2023-07-16T05:56:57;21.80;51.70
51613;DHT22;37694;51.748;14.326;2023-07-16T05:59:23;22.00;52.40
51613;DHT22;37694;51.748;14.326;2023-07-16T06:01:48;22.10;52.90
51613;DHT22;37694;51.748;14.326;2023-07-16T06:04:14;22.20;53.30
51613;DHT22;37694;51.748;14.326;2023-07-16T06:06:40;22.30;52.30
51613;DHT22;37694;51.748;14.326;2023-07-16T06:09:05;22.30;51.60
51613;DHT22;37694;51.748;14.326;2023-07-16T06:11:31;22.20;51.30
51613;DHT22;37694;51.748;14.326;2023-07-16T06:13:57;22.20;51.20
51613;DHT22;37694;51.748;14.326;2023-07-16T06:16:22;22.20;51.60
51613;DHT22;37694;51.748;14.326;2023-07-16T06:18:48;22.20;51.20
51613;DHT22;37694;51.748;14.326;2023-07-16T06:21:14;22.20;51.30
51613;DHT22;37694;51.748;14.326;2023-07-16T06:23:40;22.20;51.60
51613;DHT22;37694;51.748;14.326;2023-07-16T06:26:06;22.20;50.90
51613;DHT22;37694;51.748;14.326;2023-07-16T06:28:32;22.10;50.90
51613;DHT22;37694;51.748;14.326;2023-07-16T06:30:57;22.10;50.90
51613;DHT22;37694;51.748;14.326;2023-07-16T06:33:23;22.10;50.80
51613;DHT22;37694;51.748;14.326;2023-07-16T06:35:50;22.10;50.80
51613;DHT22;37694;51.748;14.326;2023-07-16T06:38:16;22.10;50.50
51613;DHT22;37694;51.748;14.326;2023-07-16T06:40:49;22.10;50.50
51613;DHT22;37694;51.748;14.326;2023-07-16T06:43:16;22.10;50.60
51613;DHT22;37694;51.748;14.326;2023-07-16T06:45:42;22.10;50.90
51613;DHT22;37694;51.748;14.326;2023-07-16T06:48:07;22.10;50.90
51613;DHT22;37694;51.748;14.326;2023-07-16T06:50:33;22.10;51.10
51613;DHT22;37694;51.748;14.326;2023-07-16T06:52:59;22.20;51.20
51613;DHT22;37694;51.748;14.326;2023-07-16T06:55:24;22.10;51.60
51613;DHT22;37694;51.748;14.326;2023-07-16T06:57:50;22.10;51.80
51613;DHT22;37694;51.748;14.326;2023-07-16T07:00:16;22.20;52.20
51613;DHT22;37694;51.748;14.326;2023-07-16T07:02:42;22.20;52.50
51613;DHT22;37694;51.748;14.326;2023-07-16T07:05:07;22.20;52.60
51613;DHT22;37694;51.748;14.326;2023-07-16T07:07:33;22.20;53.20
51613;DHT22;37694;51.748;14.326;2023-07-16T07:09:59;22.20;53.60
51613;DHT22;37694;51.748;14.326;2023-07-16T07:12:25;22.20;55.00
51613;DHT22;37694;51.748;14.326;2023-07-16T07:14:50;22.40;56.10
51613;DHT22;37694;51.748;14.326;2023-07-16T07:17:16;22.50;56.30
51613;DHT22;37694;51.748;14.326;2023-07-16T07:19:43;22.60;56.60
51613;DHT22;37694;51.748;14.326;2023-07-16T07:22:08;22.70;57.00
51613;DHT22;37694;51.748;14.326;2023-07-16T07:24:34;22.80;57.80
51613;DHT22;37694;51.748;14.326;2023-07-16T07:26:59;22.90;58.10
51613;DHT22;37694;51.748;14.326;2023-07-16T07:29:25;23.00;58.30
51613;DHT22;37694;51.748;14.326;2023-07-16T07:31:53;23.10;58.50
51613;DHT22;37694;51.748;14.326;2023-07-16T07:34:19;23.10;58.70
51613;DHT22;37694;51.748;14.326;2023-07-16T07:36:45;23.20;58.70
51613;DHT22;37694;51.748;14.326;2023-07-16T07:39:11;23.30;58.70
51613;DHT22;37694;51.748;14.326;2023-07-16T07:41:38;23.30;58.70
51613;DHT22;37694;51.748;14.326;2023-07-16T07:44:04;23.40;58.50
51613;DHT22;37694;51.748;14.326;2023-07-16T07:46:30;23.50;58.60
51613;DHT22;37694;51.748;14.326;2023-07-16T07:48:55;23.60;58.40
51613;DHT22;37694;51.748;14.326;2023-07-16T07:51:21;23.60;58.40
51613;DHT22;37694;51.748;14.326;2023-07-16T07:53:47;23.60;58.30
51613;DHT22;37694;51.748;14.326;2023-07-16T07:56:13;23.70;58.20
51613;DHT22;37694;51.748;14.326;2023-07-16T07:58:38;23.80;58.10
51613;DHT22;37694;51.748;14.326;2023-07-16T08:01:06;23.80;57.90
51613;DHT22;37694;51.748;14.326;2023-07-16T08:03:33;23.90;57.70
51613;DHT22;37694;51.748;14.326;2023-07-16T08:05:59;23.80;56.00
51613;DHT22;37694;51.748;14.326;2023-07-16T08:08:25;23.70;57.90
51613;DHT22;37694;51.748;14.326;2023-07-16T08:10:50;23.60;58.40
51613;DHT22;37694;51.748;14.326;2023-07-16T08:13:16;23.50;57.80
51613;DHT22;37694;51.748;14.326;2023-07-16T08:15:42;23.40;58.00
51613;DHT22;37694;51.748;14.326;2023-07-16T08:18:07;23.30;58.40
51613;DHT22;37694;51.748;14.326;2023-07-16T08:20:35;23.30;58.90
51613;DHT22;37694;51.748;14.326;2023-07-16T08:23:01;23.30;58.80
51613;DHT22;37694;51.748;14.326;2023-07-16T08:25:27;23.30;58.70
51613;DHT22;37694;51.748;14.326;2023-07-16T08:27:52;23.30;58.60
51613;DHT22;37694;51.748;14.326;2023-07-16T08:30:18;23.40;58.60
51613;DHT22;37694;51.748;14.326;2023-07-16T08:32:44;23.30;58.60
51613;DHT22;37694;51.748;14.326;2023-07-16T08:35:09;23.40;58.50
51613;DHT22;37694;51.748;14.326;2023-07-16T08:37:44;23.30;58.50
51613;DHT22;37694;51.748;14.326;2023-07-16T08:40:11;23.30;58.70
51613;DHT22;37694;51.748;14.326;2023-07-16T08:42:38;23.30;58.70
51613;DHT22;37694;51.748;14.326;2023-07-16T08:45:06;23.30;58.70
51613;DHT22;37694;51.748;14.326;2023-07-16T08:47:35;23.30;58.70
51613;DHT22;37694;51.748;14.326;2023-07-16T08:50:01;23.40;58.80
51613;DHT22;37694;51.748;14.326;2023-07-16T08:52:27;23.40;59.70
51613;DHT22;37694;51.748;14.326;2023-07-16T08:54:54;23.30;58.90
51613;DHT22;37694;51.748;14.326;2023-07-16T08:57:20;23.40;59.30
51613;DHT22;37694;51.748;14.326;2023-07-16T08:59:50;23.40;59.00
51613;DHT22;37694;51.748;14.326;2023-07-16T09:02:19;23.60;58.90
51613;DHT22;37694;51.748;14.326;2023-07-16T09:04:48;23.60;58.40
51613;DHT22;37694;51.748;14.326;2023-07-16T09:07:15;23.70;57.80
51613;DHT22;37694;51.748;14.326;2023-07-16T09:09:41;23.60;57.30
51613;DHT22;37694;51.748;14.326;2023-07-16T09:12:11;23.70;56.80
51613;DHT22;37694;51.748;14.326;2023-07-16T09:14:36;23.70;56.10
51613;DHT22;37694;51.748;14.326;2023-07-16T09:17:02;23.70;55.90
51613;DHT22;37694;51.748;14.326;2023-07-16T09:19:32;23.70;54.70
51613;DHT22;37694;51.748;14.326;2023-07-16T09:21:57;23.80;53.80
51613;DHT22;37694;51.748;14.326;2023-07-16T09:24:23;23.70;53.20
51613;DHT22;37694;51.748;14.326;2023-07-16T09:26:53;23.80;52.40
51613;DHT22;37694;51.748;14.326;2023-07-16T09:29:19;23.80;53.20
51613;DHT22;37694;51.748;14.326;2023-07-16T09:31:57;23.90;55.60
51613;DHT22;37694;51.748;14.326;2023-07-16T09:34:23;24.10;57.00
51613;DHT22;37694;51.748;14.326;2023-07-16T09:36:49;24.30;55.70
51613;DHT22;37694;51.748;14.326;2023-07-16T09:39:17;24.50;55.60
51613;DHT22;37694;51.748;14.326;2023-07-16T09:41:46;24.70;55.80
51613;DHT22;37694;51.748;14.326;2023-07-16T09:44:13;24.90;54.50
51613;DHT22;37694;51.748;14.326;2023-07-16T09:46:39;25.00;54.30
51613;DHT22;37694;51.748;14.326;2023-07-16T09:49:06;25.10;54.80
51613;DHT22;37694;51.748;14.326;2023-07-16T09:51:32;25.20;54.40
51613;DHT22;37694;51.748;14.326;2023-07-16T09:54:01;25.20;53.90
51613;DHT22;37694;51.748;14.326;2023-07-16T09:56:34;25.30;53.10
51613;DHT22;37694;51.748;14.326;2023-07-16T09:59:01;25.40;53.20
51613;DHT22;37694;51.748;14.326;2023-07-16T10:01:29;25.50;52.60
51613;DHT22;37694;51.748;14.326;2023-07-16T10:03:55;25.50;51.30
51613;DHT22;37694;51.748;14.326;2023-07-16T10:06:21;25.60;50.30
51613;DHT22;37694;51.748;14.326;2023-07-16T10:08:50;25.60;49.50
51613;DHT22;37694;51.748;14.326;2023-07-16T10:11:17;25.60;48.70
51613;DHT22;37694;51.748;14.326;2023-07-16T10:13:48;25.70;48.80
51613;DHT22;37694;51.748;14.326;2023-07-16T10:16:21;25.80;48.70
51613;DHT22;37694;51.748;14.326;2023-07-16T10:18:51;25.90;48.50
51613;DHT22;37694;51.748;14.326;2023-07-16T10:21:23;26.00;48.40
51613;DHT22;37694;51.748;14.326;2023-07-16T10:23:58;26.00;47.50
51613;DHT22;37694;51.748;14.326;2023-07-16T10:26:29;26.10;47.60
51613;DHT22;37694;51.748;14.326;2023-07-16T10:28:55;26.20;48.30
51613;DHT22;37694;51.748;14.326;2023-07-16T10:31:24;26.20;48.50
51613;DHT22;37694;51.748;14.326;2023-07-16T10:34:01;26.30;48.40
51613;DHT22;37694;51.748;14.326;2023-07-16T10:36:27;26.30;48.60
51613;DHT22;37694;51.748;14.326;2023-07-16T10:38:52;26.30;48.90
51613;DHT22;37694;51.748;14.326;2023-07-16T10:41:18;26.30;49.20
51613;DHT22;37694;51.748;14.326;2023-07-16T10:43:44;26.40;51.40
51613;DHT22;37694;51.748;14.326;2023-07-16T10:46:10;26.50;51.40
51613;DHT22;37694;51.748;14.326;2023-07-16T10:48:36;26.50;51.10
51613;DHT22;37694;51.748;14.326;2023-07-16T10:51:01;26.50;51.10
51613;DHT22;37694;51.748;14.326;2023-07-16T10:53:27;26.60;51.00
51613;DHT22;37694;51.748;14.326;2023-07-16T10:55:54;26.60;51.20
51613;DHT22;37694;51.748;14.326;2023-07-16T10:58:19;26.60;51.10
51613;DHT22;37694;51.748;14.326;2023-07-16T11:00:45;26.60;51.30
51613;DHT22;37694;51.748;14.326;2023-07-16T11:03:15;26.60;51.40
51613;DHT22;37694;51.748;14.326;2023-07-16T11:05:41;26.60;50.50
51613;DHT22;37694;51.748;14.326;2023-07-16T11:08:10;26.60;49.50
51613;DHT22;37694;51.748;14.326;2023-07-16T11:10:36;26.50;48.50
51613;DHT22;37694;51.748;14.326;2023-07-16T11:13:01;26.40;48.00
51613;DHT22;37694;51.748;14.326;2023-07-16T11:15:31;26.30;47.60
51613;DHT22;37694;51.748;14.326;2023-07-16T11:17:57;26.20;46.60
51613;DHT22;37694;51.748;14.326;2023-07-16T11:20:23;26.10;46.40
51613;DHT22;37694;51.748;14.326;2023-07-16T11:22:49;26.00;46.10
51613;DHT22;37694;51.748;14.326;2023-07-16T11:25:14;26.00;45.70
51613;DHT22;37694;51.748;14.326;2023-07-16T11:27:41;25.90;45.10
51613;DHT22;37694;51.748;14.326;2023-07-16T11:30:08;25.90;44.90
51613;DHT22;37694;51.748;14.326;2023-07-16T11:32:45;25.80;44.60
51613;DHT22;37694;51.748;14.326;2023-07-16T11:35:16;25.80;44.60
51613;DHT22;37694;51.748;14.326;2023-07-16T11:37:43;25.70;44.30
51613;DHT22;37694;51.748;14.326;2023-07-16T11:40:10;25.70;44.10
51613;DHT22;37694;51.748;14.326;2023-07-16T11:42:38;25.70;43.60
51613;DHT22;37694;51.748;14.326;2023-07-16T11:45:05;25.60;43.60
51613;DHT22;37694;51.748;14.326;2023-07-16T11:47:31;25.60;43.60
51613;DHT22;37694;51.748;14.326;2023-07-16T11:49:57;25.50;43.20
51613;DHT22;37694;51.748;14.326;2023-07-16T11:52:25;25.50;43.40
51613;DHT22;37694;51.748;14.326;2023-07-16T11:54:52;25.50;43.10
51613;DHT22;37694;51.748;14.326;2023-07-16T11:57:18;25.20;42.50
51613;DHT22;37694;51.748;14.326;2023-07-16T11:59:44;24.90;43.30
51613;DHT22;37694;51.748;14.326;2023-07-16T12:02:09;24.70;43.60
51613;DHT22;37694;51.748;14.326;2023-07-16T12:04:35;24.70;43.90
51613;DHT22;37694;51.748;14.326;2023-07-16T12:07:01;24.70;43.90
51613;DHT22;37694;51.748;14.326;2023-07-16T12:09:26;24.60;44.20
51613;DHT22;37694;51.748;14.326;2023-07-16T12:11:52;24.50;44.30
51613;DHT22;37694;51.748;14.326;2023-07-16T12:14:18;24.50;44.40
51613;DHT22;37694;51.748;14.326;2023-07-16T12:16:43;24.40;44.20
51613;DHT22;37694;51.748;14.326;2023-07-16T12:19:10;24.40;44.10
51613;DHT22;37694;51.748;14.326;2023-07-16T12:21:35;24.30;44.10
51613;DHT22;37694;51.748;14.326;2023-07-16T12:24:01;24.30;44.10
51613;DHT22;37694;51.748;14.326;2023-07-16T12:26:27;24.10;44.20
51613;DHT22;37694;51.748;14.326;2023-07-16T12:28:53;24.10;44.30
51613;DHT22;37694;51.748;14.326;2023-07-16T12:31:19;24.10;44.20
51613;DHT22;37694;51.748;14.326;2023-07-16T12:33:46;24.10;44.00
51613;DHT22;37694;51.748;14.326;2023-07-16T12:36:12;24.00;44.10
51613;DHT22;37694;51.748;14.326;2023-07-16T12:38:38;24.00;44.10
51613;DHT22;37694;51.748;14.326;2023-07-16T12:41:03;24.00;44.10
51613;DHT22;37694;51.748;14.326;2023-07-16T12:43:29;23.90;44.00
51613;DHT22;37694;51.748;14.326;2023-07-16T12:45:55;23.90;44.00
51613;DHT22;37694;51.748;14.326;2023-07-16T12:48:20;23.90;44.20
51613;DHT22;37694;51.748;14.326;2023-07-16T12:50:46;23.80;44.20
51613;DHT22;37694;51.748;14.326;2023-07-16T12:53:12;23.80;44.00
51613;DHT22;37694;51.748;14.326;2023-07-16T12:55:38;23.80;44.00
51613;DHT22;37694;51.748;14.326;2023-07-16T12:58:04;23.70;43.90
51613;DHT22;37694;51.748;14.326;2023-07-16T13:00:29;23.70;44.00
51613;DHT22;37694;51.748;14.326;2023-07-16T13:02:55;23.60;44.30
51613;DHT22;37694;51.748;14.326;2023-07-16T13:05:21;23.60;44.50
51613;DHT22;37694;51.748;14.326;2023-07-16T13:07:46;23.60;44.60
51613;DHT22;37694;51.748;14.326;2023-07-16T13:10:12;23.50;44.40
51613;DHT22;37694;51.748;14.326;2023-07-16T13:12:37;23.50;44.30
51613;DHT22;37694;51.748;14.326;2023-07-16T13:15:03;23.50;44.40
51613;DHT22;37694;51.748;14.326;2023-07-16T13:17:30;23.40;44.40
51613;DHT22;37694;51.748;14.326;2023-07-16T13:19:55;23.40;44.50
51613;DHT22;37694;51.748;14.326;2023-07-16T13:22:21;23.30;44.50
51613;DHT22;37694;51.748;14.326;2023-07-16T13:24:47;23.30;44.60
51613;DHT22;37694;51.748;14.326;2023-07-16T13:27:23;23.30;44.70
51613;DHT22;37694;51.748;14.326;2023-07-16T13:29:49;23.20;44.70
51613;DHT22;37694;51.748;14.326;2023-07-16T13:32:15;23.20;44.70
51613;DHT22;37694;51.748;14.326;2023-07-16T13:34:41;23.20;44.60
51613;DHT22;37694;51.748;14.326;2023-07-16T13:37:07;23.20;44.70
51613;DHT22;37694;51.748;14.326;2023-07-16T13:39:32;23.10;44.60
51613;DHT22;37694;51.748;14.326;2023-07-16T13:41:58;23.10;44.60
51613;DHT22;37694;51.748;14.326;2023-07-16T13:44:24;23.10;44.80
51613;DHT22;37694;51.748;14.326;2023-07-16T13:46:49;23.10;45.10
51613;DHT22;37694;51.748;14.326;2023-07-16T13:49:15;23.10;45.10
51613;DHT22;37694;51.748;14.326;2023-07-16T13:51:41;23.10;45.10
51613;DHT22;37694;51.748;14.326;2023-07-16T13:54:06;23.00;45.20
51613;DHT22;37694;51.748;14.326;2023-07-16T13:56:32;23.10;45.20
51613;DHT22;37694;51.748;14.326;2023-07-16T13:58:58;23.00;45.10
51613;DHT22;37694;51.748;14.326;2023-07-16T14:01:24;23.00;44.80
51613;DHT22;37694;51.748;14.326;2023-07-16T14:03:50;23.00;44.80
51613;DHT22;37694;51.748;14.326;2023-07-16T14:06:16;23.00;44.90
51613;DHT22;37694;51.748;14.326;2023-07-16T14:08:41;22.90;44.80
51613;DHT22;37694;51.748;14.326;2023-07-16T14:11:07;22.90;44.70
51613;DHT22;37694;51.748;14.326;2023-07-16T14:13:33;22.90;44.70
51613;DHT22;37694;51.748;14.326;2023-07-16T14:15:58;22.80;44.80
51613;DHT22;37694;51.748;14.326;2023-07-16T14:18:24;22.70;44.90
51613;DHT22;37694;51.748;14.326;2023-07-16T14:20:50;22.70;45.20
51613;DHT22;37694;51.748;14.326;2023-07-16T14:23:15;22.70;45.20
51613;DHT22;37694;51.748;14.326;2023-07-16T14:25:41;22.80;45.20
51613;DHT22;37694;51.748;14.326;2023-07-16T14:28:07;22.70;45.30
51613;DHT22;37694;51.748;14.326;2023-07-16T14:30:32;22.70;45.30
51613;DHT22;37694;51.748;14.326;2023-07-16T14:32:58;22.70;45.40
51613;DHT22;37694;51.748;14.326;2023-07-16T14:35:25;22.70;45.40
51613;DHT22;37694;51.748;14.326;2023-07-16T14:37:50;22.70;45.50
51613;DHT22;37694;51.748;14.326;2023-07-16T14:40:16;22.70;45.60
51613;DHT22;37694;51.748;14.326;2023-07-16T14:42:43;22.60;45.70
51613;DHT22;37694;51.748;14.326;2023-07-16T14:45:09;22.60;45.70
51613;DHT22;37694;51.748;14.326;2023-07-16T14:47:35;22.60;45.70
51613;DHT22;37694;51.748;14.326;2023-07-16T14:50:00;22.60;45.70
51613;DHT22;37694;51.748;14.326;2023-07-16T14:52:26;22.60;45.80
51613;DHT22;37694;51.748;14.326;2023-07-16T14:54:52;22.60;45.80
51613;DHT22;37694;51.748;14.326;2023-07-16T14:57:17;22.50;45.80
51613;DHT22;37694;51.748;14.326;2023-07-16T14:59:43;22.60;45.90
51613;DHT22;37694;51.748;14.326;2023-07-16T15:02:09;22.60;45.90
51613;DHT22;37694;51.748;14.326;2023-07-16T15:04:35;22.60;45.90
51613;DHT22;37694;51.748;14.326;2023-07-16T15:07:01;22.60;45.90
51613;DHT22;37694;51.748;14.326;2023-07-16T15:09:26;22.50;46.00
51613;DHT22;37694;51.748;14.326;2023-07-16T15:11:52;22.50;46.20
51613;DHT22;37694;51.748;14.326;2023-07-16T15:14:18;22.50;46.10
51613;DHT22;37694;51.748;14.326;2023-07-16T15:16:44;22.50;46.20